Van Meter, Iowa
Current Conditions -  °F | °C
As of 7:54 PM on Sunday 21 Dec 2014 (Local Time) from KDSM Reporting Station
Drizzle Drizzle  
Wind Chill: 36°   Ceiling: 1300
Heat Index: 43°   Visibility: 10mi
Dew Point: 38°   Wind: 15mph
Humidity: 82%   Direction: 170°S
Pressure: 29.79"   Gusts: NA
Location:  41.53°N, 93.95°W
Report Text: KDSM 220154Z 17013KT 10SM -DZ BKN013 OVC020 06/03 A2979 RMK AO2 SLP093 P0000 T00610033
Loading
Personal Weather Stations






























Interactive Weather Map New forecast layout! Learn more

10-Day Weather Forecast

Advertisements
Track Severe Weather on mobile